sensor_id;sensor_type;location;lat;lon;timestamp;pressure;altitude;pressure_sealevel;temperature;humidity
76726;BME280;65651;53.154;17.916;2023-04-20T00:02:02;101524.52;;;8.02;79.45
76726;BME280;65651;53.154;17.916;2023-04-20T00:04:29;101526.20;;;8.03;79.24
76726;BME280;65651;53.154;17.916;2023-04-20T00:06:56;101524.71;;;8.04;79.57
76726;BME280;65651;53.154;17.916;2023-04-20T00:09:25;101525.02;;;8.07;79.26
76726;BME280;65651;53.154;17.916;2023-04-20T00:11:52;101522.11;;;8.08;79.41
76726;BME280;65651;53.154;17.916;2023-04-20T00:14:20;101517.52;;;8.10;79.00
76726;BME280;65651;53.154;17.916;2023-04-20T00:16:47;101521.84;;;8.12;79.24
76726;BME280;65651;53.154;17.916;2023-04-20T00:19:14;101522.77;;;8.14;79.40
76726;BME280;65651;53.154;17.916;2023-04-20T00:21:44;101517.27;;;8.16;79.08
76726;BME280;65651;53.154;17.916;2023-04-20T00:24:12;101514.84;;;8.18;79.38
76726;BME280;65651;53.154;17.916;2023-04-20T00:26:39;101510.33;;;8.21;79.50
76726;BME280;65651;53.154;17.916;2023-04-20T00:29:07;101512.13;;;8.23;79.07
76726;BME280;65651;53.154;17.916;2023-04-20T00:31:34;101509.59;;;8.26;79.17
76726;BME280;65651;53.154;17.916;2023-04-20T00:34:01;101510.16;;;8.28;79.39
76726;BME280;65651;53.154;17.916;2023-04-20T00:36:28;101511.02;;;8.31;79.16
76726;BME280;65651;53.154;17.916;2023-04-20T00:38:55;101509.70;;;8.32;79.37
76726;BME280;65651;53.154;17.916;2023-04-20T00:41:25;101507.98;;;8.33;79.48
76726;BME280;65651;53.154;17.916;2023-04-20T00:43:56;101501.09;;;8.36;79.15
76726;BME280;65651;53.154;17.916;2023-04-20T00:46:26;101500.16;;;8.36;79.15
76726;BME280;65651;53.154;17.916;2023-04-20T00:48:53;101498.48;;;8.37;79.21
76726;BME280;65651;53.154;17.916;2023-04-20T00:51:21;101497.55;;;8.37;79.21
76726;BME280;65651;53.154;17.916;2023-04-20T00:53:48;101501.27;;;8.38;79.13
76726;BME280;65651;53.154;17.916;2023-04-20T00:56:15;101498.88;;;8.39;79.24
76726;BME280;65651;53.154;17.916;2023-04-20T00:58:43;101495.48;;;8.39;79.33
76726;BME280;65651;53.154;17.916;2023-04-20T01:01:10;101498.70;;;8.39;79.16
76726;BME280;65651;53.154;17.916;2023-04-20T01:03:39;101502.61;;;8.39;79.12
76726;BME280;65651;53.154;17.916;2023-04-20T01:06:07;101496.44;;;8.40;79.28
76726;BME280;65651;53.154;17.916;2023-04-20T01:08:34;101498.20;;;8.41;79.02
76726;BME280;65651;53.154;17.916;2023-04-20T01:11:03;101495.55;;;8.40;79.28
76726;BME280;65651;53.154;17.916;2023-04-20T01:13:31;101493.95;;;8.40;79.27
76726;BME280;65651;53.154;17.916;2023-04-20T01:15:58;101494.15;;;8.40;79.02
76726;BME280;65651;53.154;17.916;2023-04-20T01:18:41;101493.24;;;8.40;79.31
76726;BME280;65651;53.154;17.916;2023-04-20T01:21:18;101494.09;;;8.41;79.21
76726;BME280;65651;53.154;17.916;2023-04-20T01:23:47;101494.46;;;8.40;79.33
76726;BME280;65651;53.154;17.916;2023-04-20T01:26:16;101494.66;;;8.40;79.00
76726;BME280;65651;53.154;17.916;2023-04-20T01:28:45;101493.56;;;8.40;79.24
76726;BME280;65651;53.154;17.916;2023-04-20T01:31:15;101489.99;;;8.41;78.94
76726;BME280;65651;53.154;17.916;2023-04-20T01:33:45;101489.36;;;8.40;79.36
76726;BME280;65651;53.154;17.916;2023-04-20T01:36:13;101484.56;;;8.36;79.08
76726;BME280;65651;53.154;17.916;2023-04-20T01:38:41;101488.16;;;8.33;79.32
76726;BME280;65651;53.154;17.916;2023-04-20T01:41:08;101484.08;;;8.30;79.15
76726;BME280;65651;53.154;17.916;2023-04-20T01:43:37;101486.27;;;8.27;79.20
76726;BME280;65651;53.154;17.916;2023-04-20T01:46:05;101487.19;;;8.24;79.27
76726;BME280;65651;53.154;17.916;2023-04-20T01:48:32;101486.44;;;8.22;79.26
76726;BME280;65651;53.154;17.916;2023-04-20T01:51:00;101486.03;;;8.20;79.31
76726;BME280;65651;53.154;17.916;2023-04-20T01:53:27;101489.70;;;8.19;79.37
76726;BME280;65651;53.154;17.916;2023-04-20T01:55:54;101486.40;;;8.18;79.03
76726;BME280;65651;53.154;17.916;2023-04-20T01:58:22;101486.58;;;8.15;79.51
76726;BME280;65651;53.154;17.916;2023-04-20T02:00:52;101490.61;;;8.14;79.25
76726;BME280;65651;53.154;17.916;2023-04-20T02:03:19;101486.33;;;8.11;79.41
76726;BME280;65651;53.154;17.916;2023-04-20T02:05:47;101488.83;;;8.08;79.26
76726;BME280;65651;53.154;17.916;2023-04-20T02:08:14;101487.21;;;8.06;79.55
76726;BME280;65651;53.154;17.916;2023-04-20T02:10:41;101485.61;;;8.03;79.58
76726;BME280;65651;53.154;17.916;2023-04-20T02:13:09;101486.70;;;8.01;79.49
76726;BME280;65651;53.154;17.916;2023-04-20T02:15:36;101488.64;;;7.99;79.87
76726;BME280;65651;53.154;17.916;2023-04-20T02:18:03;101490.66;;;7.98;79.72
76726;BME280;65651;53.154;17.916;2023-04-20T02:20:30;101489.27;;;7.95;79.76
76726;BME280;65651;53.154;17.916;2023-04-20T02:22:59;101489.77;;;7.93;79.93
76726;BME280;65651;53.154;17.916;2023-04-20T02:25:29;101486.20;;;7.90;80.07
76726;BME280;65651;53.154;17.916;2023-04-20T02:27:56;101488.06;;;7.89;79.93
76726;BME280;65651;53.154;17.916;2023-04-20T02:30:23;101490.00;;;7.87;79.82
76726;BME280;65651;53.154;17.916;2023-04-20T02:32:50;101489.89;;;7.86;80.05
76726;BME280;65651;53.154;17.916;2023-04-20T02:35:18;101492.11;;;7.85;80.01
76726;BME280;65651;53.154;17.916;2023-04-20T02:37:45;101489.79;;;7.82;79.92
76726;BME280;65651;53.154;17.916;2023-04-20T02:40:13;101489.61;;;7.80;79.81
76726;BME280;65651;53.154;17.916;2023-04-20T02:42:40;101494.11;;;7.77;79.84
76726;BME280;65651;53.154;17.916;2023-04-20T02:45:10;101492.31;;;7.72;80.09
76726;BME280;65651;53.154;17.916;2023-04-20T02:47:37;101496.08;;;7.69;80.21
76726;BME280;65651;53.154;17.916;2023-04-20T02:50:05;101495.13;;;7.65;80.36
76726;BME280;65651;53.154;17.916;2023-04-20T02:52:35;101497.30;;;7.59;80.32
76726;BME280;65651;53.154;17.916;2023-04-20T02:55:03;101494.27;;;7.54;80.19
76726;BME280;65651;53.154;17.916;2023-04-20T02:57:30;101492.63;;;7.49;80.47
76726;BME280;65651;53.154;17.916;2023-04-20T03:00:00;101496.61;;;7.43;80.56
76726;BME280;65651;53.154;17.916;2023-04-20T03:02:39;101502.33;;;7.38;80.50
76726;BME280;65651;53.154;17.916;2023-04-20T03:05:06;101502.20;;;7.34;80.63
76726;BME280;65651;53.154;17.916;2023-04-20T03:07:41;101501.16;;;7.31;80.61
76726;BME280;65651;53.154;17.916;2023-04-20T03:10:09;101500.67;;;7.28;80.59
76726;BME280;65651;53.154;17.916;2023-04-20T03:12:57;101500.86;;;7.27;80.60
76726;BME280;65651;53.154;17.916;2023-04-20T03:15:32;101505.45;;;7.25;80.48
76726;BME280;65651;53.154;17.916;2023-04-20T03:18:07;101502.67;;;7.24;80.83
76726;BME280;65651;53.154;17.916;2023-04-20T03:20:37;101505.70;;;7.25;81.06
76726;BME280;65651;53.154;17.916;2023-04-20T03:23:05;101503.67;;;7.25;80.80
76726;BME280;65651;53.154;17.916;2023-04-20T03:25:33;101505.77;;;7.26;80.53
76726;BME280;65651;53.154;17.916;2023-04-20T03:28:05;101507.53;;;7.27;80.69
76726;BME280;65651;53.154;17.916;2023-04-20T03:30:32;101508.39;;;7.30;80.91
76726;BME280;65651;53.154;17.916;2023-04-20T03:33:03;101509.75;;;7.34;80.82
76726;BME280;65651;53.154;17.916;2023-04-20T03:35:30;101511.61;;;7.38;80.94
76726;BME280;65651;53.154;17.916;2023-04-20T03:37:57;101512.44;;;7.44;80.72
76726;BME280;65651;53.154;17.916;2023-04-20T03:40:25;101514.17;;;7.50;80.66
76726;BME280;65651;53.154;17.916;2023-04-20T03:42:56;101512.45;;;7.57;80.71
76726;BME280;65651;53.154;17.916;2023-04-20T03:45:23;101516.07;;;7.64;80.76
76726;BME280;65651;53.154;17.916;2023-04-20T03:47:50;101518.77;;;7.72;80.49
76726;BME280;65651;53.154;17.916;2023-04-20T03:50:18;101519.83;;;7.77;80.42
76726;BME280;65651;53.154;17.916;2023-04-20T03:52:45;101517.90;;;7.84;80.60
76726;BME280;65651;53.154;17.916;2023-04-20T03:55:15;101512.94;;;7.92;80.19
76726;BME280;65651;53.154;17.916;2023-04-20T03:57:45;101516.04;;;7.98;80.30
76726;BME280;65651;53.154;17.916;2023-04-20T04:00:13;101521.67;;;8.04;80.06
76726;BME280;65651;53.154;17.916;2023-04-20T04:02:47;101521.70;;;8.12;79.86
76726;BME280;65651;53.154;17.916;2023-04-20T04:05:18;101522.15;;;8.18;79.87
76726;BME280;65651;53.154;17.916;2023-04-20T04:07:48;101522.20;;;8.25;79.77
76726;BME280;65651;53.154;17.916;2023-04-20T04:10:15;101514.90;;;8.31;79.79
76726;BME280;65651;53.154;17.916;2023-04-20T04:12:44;101513.58;;;8.41;79.40
76726;BME280;65651;53.154;17.916;2023-04-20T04:15:12;101513.86;;;8.52;79.63
76726;BME280;65651;53.154;17.916;2023-04-20T04:17:47;101515.44;;;8.67;79.56
76726;BME280;65651;53.154;17.916;2023-04-20T04:20:14;101516.11;;;8.85;79.37
76726;BME280;65651;53.154;17.916;2023-04-20T04:22:43;101517.83;;;9.03;79.00
76726;BME280;65651;53.154;17.916;2023-04-20T04:25:27;101521.41;;;9.24;78.70
76726;BME280;65651;53.154;17.916;2023-04-20T04:27:55;101520.23;;;9.45;78.35
76726;BME280;65651;53.154;17.916;2023-04-20T04:30:26;101519.16;;;9.70;78.36
76726;BME280;65651;53.154;17.916;2023-04-20T04:32:55;101523.48;;;10.14;77.86
76726;BME280;65651;53.154;17.916;2023-04-20T04:35:23;101524.77;;;10.91;76.97
76726;BME280;65651;53.154;17.916;2023-04-20T04:37:50;101524.19;;;11.94;76.05
76726;BME280;65651;53.154;17.916;2023-04-20T04:40:18;101526.98;;;13.03;74.68
76726;BME280;65651;53.154;17.916;2023-04-20T04:42:47;101522.22;;;14.10;73.99
76726;BME280;65651;53.154;17.916;2023-04-20T04:45:14;101520.92;;;15.03;72.57
76726;BME280;65651;53.154;17.916;2023-04-20T04:47:42;101520.64;;;15.91;71.68
76726;BME280;65651;53.154;17.916;2023-04-20T04:50:10;101525.08;;;16.61;69.85
76726;BME280;65651;53.154;17.916;2023-04-20T04:52:38;101524.61;;;17.33;68.71
76726;BME280;65651;53.154;17.916;2023-04-20T04:55:06;101522.92;;;17.98;67.61
76726;BME280;65651;53.154;17.916;2023-04-20T04:57:35;101525.58;;;18.73;67.04
76726;BME280;65651;53.154;17.916;2023-04-20T05:00:05;101526.11;;;19.45;65.40
76726;BME280;65651;53.154;17.916;2023-04-20T05:02:37;101527.31;;;19.97;63.82
76726;BME280;65651;53.154;17.916;2023-04-20T05:05:04;101528.06;;;20.48;63.08
76726;BME280;65651;53.154;17.916;2023-04-20T05:07:32;101530.33;;;21.06;61.57
76726;BME280;65651;53.154;17.916;2023-04-20T05:09:59;101521.14;;;21.46;59.97
76726;BME280;65651;53.154;17.916;2023-04-20T05:12:26;101524.46;;;21.38;59.54
76726;BME280;65651;53.154;17.916;2023-04-20T05:14:54;101528.10;;;20.58;59.17
76726;BME280;65651;53.154;17.916;2023-04-20T05:17:22;101532.04;;;20.85;57.88
76726;BME280;65651;53.154;17.916;2023-04-20T05:19:49;101525.30;;;21.46;56.65
76726;BME280;65651;53.154;17.916;2023-04-20T05:22:18;101527.64;;;22.12;55.91
76726;BME280;65651;53.154;17.916;2023-04-20T05:24:46;101532.02;;;22.82;54.55
76726;BME280;65651;53.154;17.916;2023-04-20T05:27:13;101534.97;;;23.45;53.29
76726;BME280;65651;53.154;17.916;2023-04-20T05:29:40;101539.77;;;23.73;50.55
76726;BME280;65651;53.154;17.916;2023-04-20T05:32:07;101535.08;;;23.66;49.51
76726;BME280;65651;53.154;17.916;2023-04-20T05:34:34;101537.81;;;23.66;49.17
76726;BME280;65651;53.154;17.916;2023-04-20T05:37:03;101539.45;;;24.14;48.05
76726;BME280;65651;53.154;17.916;2023-04-20T05:39:31;101543.63;;;24.73;46.82
76726;BME280;65651;53.154;17.916;2023-04-20T05:41:58;101544.02;;;24.98;45.21
76726;BME280;65651;53.154;17.916;2023-04-20T05:44:27;101546.12;;;25.24;44.42
76726;BME280;65651;53.154;17.916;2023-04-20T05:46:54;101547.33;;;25.42;42.70
76726;BME280;65651;53.154;17.916;2023-04-20T05:49:21;101539.77;;;25.58;41.88
76726;BME280;65651;53.154;17.916;2023-04-20T05:51:48;101546.84;;;25.04;42.20
76726;BME280;65651;53.154;17.916;2023-04-20T05:54:16;101548.30;;;24.83;41.28
76726;BME280;65651;53.154;17.916;2023-04-20T05:56:42;101549.00;;;25.13;39.60
76726;BME280;65651;53.154;17.916;2023-04-20T05:59:10;101543.23;;;25.73;39.12
76726;BME280;65651;53.154;17.916;2023-04-20T06:01:37;101541.08;;;26.71;38.18
76726;BME280;65651;53.154;17.916;2023-04-20T06:04:04;101542.50;;;27.49;37.07
76726;BME280;65651;53.154;17.916;2023-04-20T06:06:31;101540.02;;;28.47;36.18
76726;BME280;65651;53.154;17.916;2023-04-20T06:09:03;101539.58;;;29.18;34.64
76726;BME280;65651;53.154;17.916;2023-04-20T06:11:30;101542.75;;;29.56;33.95
76726;BME280;65651;53.154;17.916;2023-04-20T06:13:57;101545.60;;;30.35;32.38
76726;BME280;65651;53.154;17.916;2023-04-20T06:16:24;101543.52;;;30.55;31.10
76726;BME280;65651;53.154;17.916;2023-04-20T06:18:51;101554.25;;;30.74;30.29
76726;BME280;65651;53.154;17.916;2023-04-20T06:21:19;101551.79;;;30.93;28.83
76726;BME280;65651;53.154;17.916;2023-04-20T06:23:49;101549.50;;;30.88;28.69
76726;BME280;65651;53.154;17.916;2023-04-20T06:26:17;101552.42;;;31.17;28.12
76726;BME280;65651;53.154;17.916;2023-04-20T06:28:45;101550.47;;;31.67;27.49
76726;BME280;65651;53.154;17.916;2023-04-20T06:31:13;101550.96;;;31.76;26.78
76726;BME280;65651;53.154;17.916;2023-04-20T06:33:41;101553.30;;;31.77;26.35
76726;BME280;65651;53.154;17.916;2023-04-20T06:36:08;101555.63;;;32.46;26.39
76726;BME280;65651;53.154;17.916;2023-04-20T06:38:35;101558.77;;;33.38;25.45
76726;BME280;65651;53.154;17.916;2023-04-20T06:41:02;101559.60;;;34.04;25.05
76726;BME280;65651;53.154;17.916;2023-04-20T06:43:29;101560.30;;;34.49;24.21
76726;BME280;65651;53.154;17.916;2023-04-20T06:45:56;101559.94;;;34.63;23.58
76726;BME280;65651;53.154;17.916;2023-04-20T06:48:23;101558.87;;;34.42;23.06
76726;BME280;65651;53.154;17.916;2023-04-20T06:50:51;101567.25;;;34.39;22.38
76726;BME280;65651;53.154;17.916;2023-04-20T06:53:18;101569.11;;;34.23;22.43
76726;BME280;65651;53.154;17.916;2023-04-20T06:55:45;101560.52;;;34.50;22.21
76726;BME280;65651;53.154;17.916;2023-04-20T06:58:12;101564.54;;;35.20;22.02
76726;BME280;65651;53.154;17.916;2023-04-20T07:00:39;101566.12;;;35.20;21.19
76726;BME280;65651;53.154;17.916;2023-04-20T07:03:06;101565.02;;;35.23;21.34
76726;BME280;65651;53.154;17.916;2023-04-20T07:05:35;101566.89;;;35.52;20.51
76726;BME280;65651;53.154;17.916;2023-04-20T07:08:02;101569.33;;;35.16;20.20
76726;BME280;65651;53.154;17.916;2023-04-20T07:10:29;101561.68;;;35.10;20.29
76726;BME280;65651;53.154;17.916;2023-04-20T07:12:56;101562.83;;;35.42;20.04
76726;BME280;65651;53.154;17.916;2023-04-20T07:15:23;101565.63;;;35.49;19.82
76726;BME280;65651;53.154;17.916;2023-04-20T07:17:50;101564.43;;;35.21;20.00
76726;BME280;65651;53.154;17.916;2023-04-20T07:20:17;101561.70;;;35.39;19.83
76726;BME280;65651;53.154;17.916;2023-04-20T07:22:44;101561.84;;;35.63;19.85
76726;BME280;65651;53.154;17.916;2023-04-20T07:25:15;101562.73;;;35.65;19.38
76726;BME280;65651;53.154;17.916;2023-04-20T07:27:43;101561.64;;;35.86;19.68
76726;BME280;65651;53.154;17.916;2023-04-20T07:30:10;101565.27;;;36.10;19.40
76726;BME280;65651;53.154;17.916;2023-04-20T07:32:39;101564.27;;;36.19;19.51
76726;BME280;65651;53.154;17.916;2023-04-20T07:35:08;101565.89;;;36.54;19.05
76726;BME280;65651;53.154;17.916;2023-04-20T07:37:35;101562.77;;;36.93;18.51
76726;BME280;65651;53.154;17.916;2023-04-20T07:40:02;101561.57;;;36.99;18.73
76726;BME280;65651;53.154;17.916;2023-04-20T07:42:33;101564.15;;;37.38;18.45
76726;BME280;65651;53.154;17.916;2023-04-20T07:45:03;101572.02;;;37.80;18.20
76726;BME280;65651;53.154;17.916;2023-04-20T07:47:38;101572.94;;;37.85;17.99
76726;BME280;65651;53.154;17.916;2023-04-20T07:50:06;101574.48;;;37.66;17.36
76726;BME280;65651;53.154;17.916;2023-04-20T07:52:34;101572.55;;;37.27;17.47
76726;BME280;65651;53.154;17.916;2023-04-20T07:55:01;101574.94;;;35.49;17.77
76726;BME280;65651;53.154;17.916;2023-04-20T07:57:31;101574.92;;;34.28;18.40
76726;BME280;65651;53.154;17.916;2023-04-20T07:59:58;101576.48;;;34.01;18.78
76726;BME280;65651;53.154;17.916;2023-04-20T08:02:25;101574.77;;;34.06;19.09
76726;BME280;65651;53.154;17.916;2023-04-20T08:04:53;101577.20;;;34.46;18.94
76726;BME280;65651;53.154;17.916;2023-04-20T08:07:20;101576.67;;;34.57;18.76
76726;BME280;65651;53.154;17.916;2023-04-20T08:09:46;101576.04;;;33.33;19.27
76726;BME280;65651;53.154;17.916;2023-04-20T08:12:14;101578.20;;;30.82;20.63
76726;BME280;65651;53.154;17.916;2023-04-20T08:14:41;101586.41;;;28.99;21.79
76726;BME280;65651;53.154;17.916;2023-04-20T08:17:08;101580.73;;;27.81;22.68
76726;BME280;65651;53.154;17.916;2023-04-20T08:19:35;101581.63;;;28.57;23.01
76726;BME280;65651;53.154;17.916;2023-04-20T08:22:04;101579.98;;;28.74;23.43
76726;BME280;65651;53.154;17.916;2023-04-20T08:24:31;101581.02;;;27.52;24.12
76726;BME280;65651;53.154;17.916;2023-04-20T08:26:58;101586.48;;;26.52;24.87
76726;BME280;65651;53.154;17.916;2023-04-20T08:29:25;101589.43;;;26.06;25.36
76726;BME280;65651;53.154;17.916;2023-04-20T08:31:55;101589.13;;;25.17;26.41
76726;BME280;65651;53.154;17.916;2023-04-20T08:34:22;101586.80;;;24.62;27.11
76726;BME280;65651;53.154;17.916;2023-04-20T08:36:49;101593.60;;;24.68;27.59
76726;BME280;65651;53.154;17.916;2023-04-20T08:39:20;101595.45;;;24.60;28.00
76726;BME280;65651;53.154;17.916;2023-04-20T08:41:50;101597.66;;;24.27;28.52
76726;BME280;65651;53.154;17.916;2023-04-20T08:44:21;101600.14;;;24.72;28.54
76726;BME280;65651;53.154;17.916;2023-04-20T08:46:49;101593.25;;;24.93;28.70
76726;BME280;65651;53.154;17.916;2023-04-20T08:49:18;101591.46;;;24.96;28.71
76726;BME280;65651;53.154;17.916;2023-04-20T08:51:48;101588.31;;;25.75;28.76
76726;BME280;65651;53.154;17.916;2023-04-20T08:54:15;101595.18;;;25.16;29.11
76726;BME280;65651;53.154;17.916;2023-04-20T08:56:44;101595.49;;;24.93;29.20
76726;BME280;65651;53.154;17.916;2023-04-20T08:59:12;101597.36;;;25.50;28.96
76726;BME280;65651;53.154;17.916;2023-04-20T09:01:40;101596.69;;;25.36;29.14
76726;BME280;65651;53.154;17.916;2023-04-20T09:04:34;101601.98;;;24.09;29.74
76726;BME280;65651;53.154;17.916;2023-04-20T09:07:02;101604.30;;;22.35;31.03
76726;BME280;65651;53.154;17.916;2023-04-20T09:09:28;101609.92;;;21.57;32.10
76726;BME280;65651;53.154;17.916;2023-04-20T09:12:14;101615.67;;;21.11;32.70
76726;BME280;65651;53.154;17.916;2023-04-20T09:14:42;101617.30;;;21.41;33.17
76726;BME280;65651;53.154;17.916;2023-04-20T09:17:09;101614.64;;;22.78;32.58
76726;BME280;65651;53.154;17.916;2023-04-20T09:19:42;101612.80;;;24.72;31.94
76726;BME280;65651;53.154;17.916;2023-04-20T09:22:10;101609.50;;;26.90;30.44
76726;BME280;65651;53.154;17.916;2023-04-20T09:24:40;101605.19;;;28.48;29.02
76726;BME280;65651;53.154;17.916;2023-04-20T09:27:18;101607.23;;;29.64;28.08
76726;BME280;65651;53.154;17.916;2023-04-20T09:32:27;101603.95;;;30.16;25.66
76726;BME280;65651;53.154;17.916;2023-04-20T09:34:55;101603.08;;;30.92;24.63
76726;BME280;65651;53.154;17.916;2023-04-20T09:37:23;101608.77;;;30.17;24.44
76726;BME280;65651;53.154;17.916;2023-04-20T09:39:54;101607.90;;;29.52;24.45
76726;BME280;65651;53.154;17.916;2023-04-20T09:42:26;101602.96;;;29.71;24.48
76726;BME280;65651;53.154;17.916;2023-04-20T09:44:57;101595.95;;;30.49;24.06
76726;BME280;65651;53.154;17.916;2023-04-20T09:47:24;101594.13;;;31.47;23.83
76726;BME280;65651;53.154;17.916;2023-04-20T09:49:53;101596.80;;;31.02;23.41
76726;BME280;65651;53.154;17.916;2023-04-20T09:52:22;101592.84;;;31.46;22.99
76726;BME280;65651;53.154;17.916;2023-04-20T09:54:53;101593.11;;;31.55;22.54
76726;BME280;65651;53.154;17.916;2023-04-20T09:57:21;101596.73;;;31.50;22.48
76726;BME280;65651;53.154;17.916;2023-04-20T09:59:50;101590.36;;;30.29;22.92
76726;BME280;65651;53.154;17.916;2023-04-20T10:02:17;101591.77;;;28.71;23.78
76726;BME280;65651;53.154;17.916;2023-04-20T10:04:52;101598.20;;;27.35;24.54
76726;BME280;65651;53.154;17.916;2023-04-20T10:07:24;101595.51;;;25.85;25.69
76726;BME280;65651;53.154;17.916;2023-04-20T10:10:06;101596.03;;;24.49;26.93
76726;BME280;65651;53.154;17.916;2023-04-20T10:12:46;101593.95;;;23.54;27.86
76726;BME280;65651;53.154;17.916;2023-04-20T10:15:13;101593.85;;;22.58;29.01
76726;BME280;65651;53.154;17.916;2023-04-20T10:17:40;101592.98;;;21.94;30.15
76726;BME280;65651;53.154;17.916;2023-04-20T10:20:22;101601.05;;;21.67;30.88
76726;BME280;65651;53.154;17.916;2023-04-20T10:23:04;101600.40;;;21.64;31.78
76726;BME280;65651;53.154;17.916;2023-04-20T10:25:32;101599.97;;;21.64;32.13
76726;BME280;65651;53.154;17.916;2023-04-20T10:28:01;101598.86;;;21.52;32.68
76726;BME280;65651;53.154;17.916;2023-04-20T10:30:33;101592.23;;;21.24;33.35
76726;BME280;65651;53.154;17.916;2023-04-20T10:33:11;101593.48;;;21.09;33.95
76726;BME280;65651;53.154;17.916;2023-04-20T10:35:54;101591.42;;;20.82;34.66
76726;BME280;65651;53.154;17.916;2023-04-20T10:38:34;101594.55;;;20.62;35.34
76726;BME280;65651;53.154;17.916;2023-04-20T10:41:06;101588.40;;;20.46;35.75
76726;BME280;65651;53.154;17.916;2023-04-20T10:43:33;101587.00;;;20.47;36.09
76726;BME280;65651;53.154;17.916;2023-04-20T10:46:23;101588.98;;;20.33;36.59
76726;BME280;65651;53.154;17.916;2023-04-20T10:48:52;101590.62;;;20.23;36.83
76726;BME280;65651;53.154;17.916;2023-04-20T10:51:20;101587.55;;;20.24;36.91
76726;BME280;65651;53.154;17.916;2023-04-20T10:54:03;101580.84;;;20.27;37.33
76726;BME280;65651;53.154;17.916;2023-04-20T10:56:50;101581.77;;;20.52;37.41
76726;BME280;65651;53.154;17.916;2023-04-20T10:59:20;101574.92;;;20.82;37.37
76726;BME280;65651;53.154;17.916;2023-04-20T11:01:49;101574.58;;;21.04;37.39
76726;BME280;65651;53.154;17.916;2023-04-20T11:04:31;101571.95;;;21.10;37.35
76726;BME280;65651;53.154;17.916;2023-04-20T11:07:06;101576.98;;;21.27;36.77
76726;BME280;65651;53.154;17.916;2023-04-20T11:09:34;101570.11;;;21.32;36.50
76726;BME280;65651;53.154;17.916;2023-04-20T11:12:07;101575.21;;;21.34;36.41
76726;BME280;65651;53.154;17.916;2023-04-20T11:14:37;101568.02;;;21.31;36.26
76726;BME280;65651;53.154;17.916;2023-04-20T11:17:05;101566.52;;;21.29;36.35
76726;BME280;65651;53.154;17.916;2023-04-20T11:19:34;101566.13;;;21.27;36.67
76726;BME280;65651;53.154;17.916;2023-04-20T11:22:04;101566.28;;;21.25;36.94
76726;BME280;65651;53.154;17.916;2023-04-20T11:24:33;101567.23;;;21.07;36.98
76726;BME280;65651;53.154;17.916;2023-04-20T11:27:02;101573.27;;;20.81;37.29
76726;BME280;65651;53.154;17.916;2023-04-20T11:29:32;101571.88;;;20.40;37.48
76726;BME280;65651;53.154;17.916;2023-04-20T11:32:05;101569.29;;;20.20;37.83
76726;BME280;65651;53.154;17.916;2023-04-20T11:34:34;101569.36;;;20.07;38.15
76726;BME280;65651;53.154;17.916;2023-04-20T11:37:09;101568.80;;;19.99;38.43
76726;BME280;65651;53.154;17.916;2023-04-20T11:39:37;101569.10;;;20.02;38.45
76726;BME280;65651;53.154;17.916;2023-04-20T11:42:05;101564.91;;;19.97;38.71
76726;BME280;65651;53.154;17.916;2023-04-20T11:44:32;101563.77;;;19.95;38.72
76726;BME280;65651;53.154;17.916;2023-04-20T11:47:02;101564.88;;;19.85;39.15
76726;BME280;65651;53.154;17.916;2023-04-20T11:49:29;101562.20;;;19.68;39.29
76726;BME280;65651;53.154;17.916;2023-04-20T11:51:57;101567.82;;;19.46;39.54
76726;BME280;65651;53.154;17.916;2023-04-20T11:54:27;101568.69;;;19.26;39.78
76726;BME280;65651;53.154;17.916;2023-04-20T11:56:57;101565.35;;;19.08;39.96
76726;BME280;65651;53.154;17.916;2023-04-20T11:59:25;101568.38;;;18.87;40.33
76726;BME280;65651;53.154;17.916;2023-04-20T12:01:52;101565.58;;;18.65;40.78
76726;BME280;65651;53.154;17.916;2023-04-20T12:04:20;101561.26;;;18.57;41.27
76726;BME280;65651;53.154;17.916;2023-04-20T12:06:47;101561.48;;;18.58;41.40
76726;BME280;65651;53.154;17.916;2023-04-20T12:09:18;101557.36;;;18.68;41.51
76726;BME280;65651;53.154;17.916;2023-04-20T12:11:45;101555.75;;;18.74;41.73
76726;BME280;65651;53.154;17.916;2023-04-20T12:14:12;101554.98;;;18.69;41.88
76726;BME280;65651;53.154;17.916;2023-04-20T12:16:39;101557.42;;;18.62;41.97
76726;BME280;65651;53.154;17.916;2023-04-20T12:19:09;101551.84;;;18.50;42.21
76726;BME280;65651;53.154;17.916;2023-04-20T12:21:37;101557.49;;;18.41;42.37
76726;BME280;65651;53.154;17.916;2023-04-20T12:24:05;101552.17;;;18.35;42.47
76726;BME280;65651;53.154;17.916;2023-04-20T12:26:32;101543.93;;;18.32;42.48
76726;BME280;65651;53.154;17.916;2023-04-20T12:29:02;101549.64;;;18.32;42.73
76726;BME280;65651;53.154;17.916;2023-04-20T12:31:29;101544.86;;;18.32;42.67
76726;BME280;65651;53.154;17.916;2023-04-20T12:33:57;101553.60;;;18.33;42.94
76726;BME280;65651;53.154;17.916;2023-04-20T12:36:24;101546.87;;;18.32;42.70
76726;BME280;65651;53.154;17.916;2023-04-20T12:38:52;101542.19;;;18.36;42.80
76726;BME280;65651;53.154;17.916;2023-04-20T12:41:21;101538.30;;;18.48;42.81
76726;BME280;65651;53.154;17.916;2023-04-20T12:43:49;101534.59;;;18.60;42.60
76726;BME280;65651;53.154;17.916;2023-04-20T12:46:17;101536.88;;;18.67;42.28
76726;BME280;65651;53.154;17.916;2023-04-20T12:48:44;101534.95;;;18.71;41.95
76726;BME280;65651;53.154;17.916;2023-04-20T12:51:15;101533.79;;;18.71;41.87
76726;BME280;65651;53.154;17.916;2023-04-20T12:53:45;101524.98;;;18.70;42.08
76726;BME280;65651;53.154;17.916;2023-04-20T12:56:13;101523.98;;;18.83;42.00